Time;durP1;ratioP1;P1;durP2;ratioP2;P2;SDS_P1;SDS_P2;PMS_P1;PMS_P2;Temp;Humidity;BMP_temperature;BMP_pressure;BME280_temperature;BME280_humidity;BME280_pressure;Samples;Min_cycle;Max_cycle;Signal;HPM_P1;HPM_P2
2023/12/22 00:02:08;;;;;;;1.30;0.60;;;7.70;99.90;;;;;;5051580;28;20053;-66
2023/12/22 00:04:33;;;;;;;1.40;0.63;;;7.60;99.90;;;;;;5051862;28;20029;-66
2023/12/22 00:07:02;;;;;;;0.70;0.50;;;7.60;99.90;;;;;;5051146;28;20032;-66
2023/12/22 00:09:27;;;;;;;1.10;0.60;;;7.50;99.90;;;;;;5051606;28;20043;-65
2023/12/22 00:11:53;;;;;;;3.67;0.70;;;7.50;99.90;;;;;;5051018;28;20033;-66
2023/12/22 00:14:19;;;;;;;0.98;0.60;;;7.50;99.90;;;;;;5051951;28;20428;-66
2023/12/22 00:16:44;;;;;;;2.47;0.40;;;7.50;99.90;;;;;;5049961;28;20204;-67
2023/12/22 00:19:10;;;;;;;0.88;0.50;;;7.50;99.90;;;;;;5051560;28;20438;-66
2023/12/22 00:21:35;;;;;;;1.05;0.60;;;7.60;99.90;;;;;;5051418;28;20029;-65
2023/12/22 00:24:01;;;;;;;1.48;0.38;;;7.60;99.90;;;;;;5050766;28;20025;-66
2023/12/22 00:26:27;;;;;;;0.90;0.60;;;7.60;98.80;;;;;;5050165;28;20021;-65
2023/12/22 00:28:52;;;;;;;4.93;0.80;;;7.60;97.90;;;;;;5051236;28;20432;-65
2023/12/22 00:31:18;;;;;;;0.98;0.52;;;7.60;96.70;;;;;;5051642;28;20033;-65
2023/12/22 00:33:43;;;;;;;2.17;0.57;;;7.60;96.10;;;;;;5051420;28;20109;-65
2023/12/22 00:36:09;;;;;;;1.55;0.60;;;7.60;94.30;;;;;;5051194;28;20350;-64
2023/12/22 00:38:35;;;;;;;3.95;0.70;;;7.60;94.10;;;;;;5051415;28;20373;-64
2023/12/22 00:41:00;;;;;;;1.52;0.70;;;7.60;93.80;;;;;;5050768;28;20025;-65
2023/12/22 00:43:26;;;;;;;1.20;0.50;;;7.70;93.70;;;;;;5051390;28;20110;-65
2023/12/22 00:45:52;;;;;;;2.28;0.70;;;7.60;93.70;;;;;;5054317;28;20037;-65
2023/12/22 00:48:18;;;;;;;1.90;0.70;;;7.60;93.40;;;;;;5055272;28;20036;-65
2023/12/22 00:50:43;;;;;;;4.70;0.60;;;7.60;92.90;;;;;;5055072;28;20462;-65
2023/12/22 00:53:09;;;;;;;1.10;0.50;;;7.60;92.80;;;;;;5054844;28;20055;-65
2023/12/22 00:55:35;;;;;;;2.25;0.60;;;7.60;92.90;;;;;;5055175;28;20126;-65
2023/12/22 00:58:01;;;;;;;2.15;0.60;;;7.60;92.60;;;;;;5054340;28;20458;-64
2023/12/22 01:00:26;;;;;;;3.85;0.90;;;7.60;92.80;;;;;;5055008;28;20151;-64
2023/12/22 01:02:52;;;;;;;1.52;0.60;;;7.60;92.90;;;;;;5054537;28;20025;-65
2023/12/22 01:05:17;;;;;;;2.28;1.13;;;7.60;92.90;;;;;;5054926;28;20047;-65
2023/12/22 01:07:43;;;;;;;1.65;0.50;;;7.60;92.50;;;;;;5054647;28;20047;-64
2023/12/22 01:10:09;;;;;;;4.32;0.73;;;7.60;92.20;;;;;;5054545;28;20103;-64
2023/12/22 01:12:34;;;;;;;1.60;0.60;;;7.60;92.00;;;;;;5054902;28;20033;-65
2023/12/22 01:15:00;;;;;;;2.15;0.70;;;7.60;91.90;;;;;;5054433;28;20094;-65
2023/12/22 01:17:26;;;;;;;1.00;0.60;;;7.60;91.70;;;;;;5054709;28;20479;-65
2023/12/22 01:19:51;;;;;;;1.27;0.50;;;7.60;91.20;;;;;;5054281;28;20151;-65
2023/12/22 01:22:17;;;;;;;2.47;0.57;;;7.60;91.20;;;;;;5054598;28;20028;-64
2023/12/22 01:24:43;;;;;;;1.17;0.57;;;7.60;91.00;;;;;;5054584;28;20029;-65
2023/12/22 01:27:09;;;;;;;2.67;0.60;;;7.60;91.20;;;;;;5054155;28;20250;-65
2023/12/22 01:29:35;;;;;;;1.33;0.47;;;7.50;91.00;;;;;;5054401;28;20462;-64
2023/12/22 01:32:00;;;;;;;4.50;0.75;;;7.50;90.70;;;;;;5053730;28;20163;-64
2023/12/22 01:34:26;;;;;;;1.23;0.50;;;7.50;90.80;;;;;;5054341;28;20100;-65
2023/12/22 01:36:52;;;;;;;1.30;0.52;;;7.50;90.90;;;;;;5053941;28;20033;-65
2023/12/22 01:39:17;;;;;;;5.20;0.82;;;7.60;90.90;;;;;;5054324;28;20476;-65
2023/12/22 01:41:43;;;;;;;2.15;0.73;;;7.50;90.60;;;;;;5053902;28;20047;-64
2023/12/22 01:44:08;;;;;;;1.48;0.60;;;7.50;90.20;;;;;;5067206;28;20366;-64
2023/12/22 01:46:35;;;;;;;1.45;0.50;;;7.50;89.10;;;;;;5073829;28;20028;-64
2023/12/22 01:49:02;;;;;;;2.88;0.50;;;7.50;88.50;;;;;;5073695;28;20426;-64
2023/12/22 01:51:31;;;;;;;0.82;0.60;;;7.50;88.40;;;;;;5073780;28;20446;-64
2023/12/22 01:53:56;;;;;;;1.20;0.77;;;7.50;88.60;;;;;;5073710;28;20037;-65
2023/12/22 01:56:22;;;;;;;0.98;0.45;;;7.50;88.70;;;;;;5067918;28;20527;-64
2023/12/22 01:58:50;;;;;;;1.67;0.50;;;7.50;88.20;;;;;;5053676;28;20073;-63
2023/12/22 02:01:16;;;;;;;1.60;0.50;;;7.50;87.70;;;;;;5053686;28;20053;-63
2023/12/22 02:03:42;;;;;;;1.45;0.60;;;7.50;87.30;;;;;;5053554;28;20068;-64
2023/12/22 02:06:08;;;;;;;0.95;0.40;;;7.50;87.00;;;;;;5053388;28;20429;-64
2023/12/22 02:08:34;;;;;;;2.83;0.70;;;7.50;86.90;;;;;;5053440;28;20090;-64
2023/12/22 02:11:00;;;;;;;1.92;0.60;;;7.50;86.90;;;;;;5053361;28;20115;-64
2023/12/22 02:13:26;;;;;;;1.58;0.70;;;7.50;86.90;;;;;;5053310;28;20029;-64
2023/12/22 02:16:03;;;;;;;1.48;0.45;;;7.50;87.30;;;;;;5042197;28;20069;-65
2023/12/22 02:18:35;;;;;;;0.98;0.50;;;7.50;87.40;;;;;;5046932;28;20055;-64
2023/12/22 02:21:00;;;;;;;;;;;7.50;88.50;;;;;;5053449;28;20057;-64
2023/12/22 02:23:26;;;;;;;1.60;0.40;;;7.50;90.20;;;;;;5053424;28;19952;-64
2023/12/22 02:25:57;;;;;;;1.15;0.50;;;7.50;90.80;;;;;;5053252;28;20217;-64
2023/12/22 02:28:24;;;;;;;1.55;0.50;;;7.50;91.60;;;;;;5051724;28;20032;-64
2023/12/22 02:31:14;;;;;;;1.23;0.38;;;7.50;92.30;;;;;;5034706;28;20132;-64
2023/12/22 02:33:42;;;;;;;1.38;0.50;;;7.40;92.70;;;;;;5049823;28;20482;-64
2023/12/22 02:36:09;;;;;;;1.25;0.50;;;7.40;93.00;;;;;;5052141;28;20025;-64
2023/12/22 02:38:35;;;;;;;1.85;0.63;;;7.30;93.20;;;;;;5033276;28;20022;-64
2023/12/22 02:41:02;;;;;;;1.45;0.43;;;7.30;92.50;;;;;;5032488;28;20079;-65
2023/12/22 02:43:28;;;;;;;2.42;0.57;;;7.30;92.20;;;;;;5033193;28;20030;-63
2023/12/22 02:45:54;;;;;;;2.45;0.65;;;7.30;91.60;;;;;;5032973;28;20036;-63
2023/12/22 02:48:20;;;;;;;3.85;0.82;;;7.20;91.30;;;;;;5032710;28;20030;-64
2023/12/22 02:50:45;;;;;;;4.75;1.00;;;7.20;90.10;;;;;;5047041;28;20512;-64
2023/12/22 02:53:11;;;;;;;5.07;1.20;;;7.10;87.80;;;;;;5052432;28;20029;-65
2023/12/22 02:55:37;;;;;;;6.95;1.65;;;7.10;84.80;;;;;;5052817;28;20377;-64
2023/12/22 02:58:02;;;;;;;5.93;1.35;;;7.10;81.40;;;;;;5052116;28;20029;-64
2023/12/22 03:00:28;;;;;;;5.78;1.50;;;7.10;79.30;;;;;;5052379;28;20088;-64
2023/12/22 03:02:53;;;;;;;5.38;1.13;;;7.10;78.50;;;;;;5034115;28;20053;-64
2023/12/22 03:05:19;;;;;;;2.63;0.90;;;7.10;77.70;;;;;;5032518;28;20115;-64
2023/12/22 03:07:45;;;;;;;9.23;1.30;;;7.10;78.30;;;;;;5031924;28;20371;-64
2023/12/22 03:10:10;;;;;;;4.75;0.95;;;7.10;79.50;;;;;;5032073;28;20037;-64
2023/12/22 03:12:36;;;;;;;8.52;1.10;;;7.00;80.80;;;;;;5032565;28;20025;-64
2023/12/22 03:15:02;;;;;;;4.20;1.00;;;7.10;82.60;;;;;;5031756;28;20029;-65
2023/12/22 03:17:28;;;;;;;4.10;0.93;;;7.00;84.30;;;;;;5035071;28;20037;-65
2023/12/22 03:19:53;;;;;;;3.22;0.63;;;7.00;85.90;;;;;;5052376;28;20098;-64
2023/12/22 03:22:19;;;;;;;2.20;0.68;;;7.00;87.50;;;;;;5042639;28;20022;-64
2023/12/22 03:24:44;;;;;;;3.45;0.85;;;7.00;88.70;;;;;;5032736;28;20040;-64
2023/12/22 03:27:10;;;;;;;4.68;1.10;;;7.00;89.90;;;;;;5031957;28;20022;-64
2023/12/22 03:29:36;;;;;;;3.63;0.90;;;6.90;90.30;;;;;;5050444;28;20515;-64
2023/12/22 03:32:01;;;;;;;5.28;1.17;;;6.90;90.70;;;;;;5051611;28;20032;-65
2023/12/22 03:34:27;;;;;;;5.28;1.10;;;6.90;91.30;;;;;;5052027;28;20048;-64
2023/12/22 03:36:53;;;;;;;5.95;1.83;;;6.80;91.70;;;;;;5052073;28;20029;-64
2023/12/22 03:39:18;;;;;;;2.70;0.85;;;6.80;92.10;;;;;;5032044;28;20565;-64
2023/12/22 03:41:44;;;;;;;1.60;0.80;;;6.80;92.40;;;;;;5031977;28;20037;-63
2023/12/22 03:44:10;;;;;;;3.28;0.98;;;6.70;92.70;;;;;;5031832;28;20434;-63
2023/12/22 03:46:35;;;;;;;3.70;0.73;;;6.70;93.00;;;;;;5031935;28;20035;-64
2023/12/22 03:49:01;;;;;;;5.00;0.65;;;6.70;93.30;;;;;;5054143;28;20367;-68
2023/12/22 03:51:26;;;;;;;4.30;0.80;;;6.60;93.40;;;;;;5071868;28;20158;-64
2023/12/22 03:53:52;;;;;;;4.38;0.68;;;6.60;93.50;;;;;;5071844;28;20055;-63
2023/12/22 03:56:18;;;;;;;5.10;1.20;;;6.60;93.60;;;;;;5071512;28;20066;-64
2023/12/22 03:58:44;;;;;;;1.58;0.88;;;6.60;93.80;;;;;;5070223;28;20057;-65
2023/12/22 04:01:14;;;;;;;1.48;0.65;;;6.60;93.80;;;;;;5071424;28;20334;-65
2023/12/22 04:03:39;;;;;;;0.70;0.63;;;6.50;94.00;;;;;;5071537;28;20025;-65
2023/12/22 04:06:05;;;;;;;4.30;0.63;;;6.50;94.20;;;;;;5052878;28;20357;-66
2023/12/22 04:08:31;;;;;;;4.97;0.98;;;6.50;94.30;;;;;;5051244;28;20028;-64
2023/12/22 04:10:56;;;;;;;2.55;0.52;;;6.50;94.40;;;;;;5051211;28;20071;-64
2023/12/22 04:13:22;;;;;;;2.95;0.80;;;6.50;94.40;;;;;;5050974;28;20238;-64
2023/12/22 04:15:48;;;;;;;3.05;0.73;;;6.50;94.40;;;;;;5051702;28;20020;-64
2023/12/22 04:18:13;;;;;;;2.45;0.80;;;6.50;94.40;;;;;;5052336;28;20077;-65
2023/12/22 04:20:39;;;;;;;2.80;0.82;;;6.50;94.10;;;;;;5055697;28;20103;-65
2023/12/22 04:23:04;;;;;;;2.05;0.70;;;6.50;93.90;;;;;;5054834;28;20086;-66
2023/12/22 04:25:30;;;;;;;3.65;0.80;;;6.50;94.00;;;;;;5055635;28;20458;-65
2023/12/22 04:27:56;;;;;;;1.88;0.68;;;6.50;94.00;;;;;;5055595;28;20036;-64
2023/12/22 04:30:21;;;;;;;2.45;0.70;;;6.50;94.10;;;;;;5055095;28;20028;-65
2023/12/22 04:32:47;;;;;;;2.60;0.60;;;6.40;94.00;;;;;;5055428;28;20040;-65
2023/12/22 04:35:12;;;;;;;5.13;0.93;;;6.40;94.00;;;;;;5054690;28;20052;-65
2023/12/22 04:37:38;;;;;;;2.20;0.60;;;6.40;94.00;;;;;;5055684;28;20029;-64
2023/12/22 04:40:04;;;;;;;5.22;0.80;;;6.40;93.90;;;;;;5055453;28;20055;-64
2023/12/22 04:42:30;;;;;;;3.45;0.63;;;6.40;93.70;;;;;;5054893;28;20025;-65
2023/12/22 04:44:55;;;;;;;3.47;0.90;;;6.40;93.40;;;;;;5054039;28;20036;-65
2023/12/22 04:47:21;;;;;;;1.20;0.70;;;6.40;93.30;;;;;;5054875;28;20392;-65
2023/12/22 04:49:46;;;;;;;3.33;1.10;;;6.40;92.60;;;;;;5055299;28;20035;-65
2023/12/22 04:52:12;;;;;;;2.80;0.70;;;6.40;92.60;;;;;;5054955;28;20119;-65
2023/12/22 04:54:38;;;;;;;3.60;1.00;;;6.40;92.60;;;;;;5055017;28;20028;-65
2023/12/22 04:57:04;;;;;;;1.38;0.70;;;6.40;92.30;;;;;;5054721;28;20025;-65
2023/12/22 04:59:30;;;;;;;2.80;0.90;;;6.40;92.40;;;;;;5054273;28;20083;-65
2023/12/22 05:01:56;;;;;;;5.13;1.13;;;6.50;92.10;;;;;;5054462;28;20461;-65
2023/12/22 05:04:22;;;;;;;3.53;0.63;;;6.50;92.10;;;;;;5054426;28;20047;-66
2023/12/22 05:06:48;;;;;;;3.10;0.70;;;6.50;91.80;;;;;;5054751;28;20412;-64
2023/12/22 05:09:14;;;;;;;1.45;0.80;;;6.60;91.50;;;;;;5054592;28;20108;-65
2023/12/22 05:11:40;;;;;;;2.10;0.75;;;6.60;91.60;;;;;;5054849;28;20136;-65
2023/12/22 05:14:05;;;;;;;3.15;0.77;;;6.60;91.30;;;;;;5054790;28;20025;-65
2023/12/22 05:16:31;;;;;;;1.98;0.80;;;6.50;90.70;;;;;;5054217;28;20472;-64
2023/12/22 05:19:00;;;;;;;3.22;0.75;;;6.60;90.30;;;;;;5053433;28;20036;-65
2023/12/22 05:21:27;;;;;;;7.45;0.90;;;6.60;89.70;;;;;;5053924;28;20500;-65
2023/12/22 05:23:53;;;;;;;4.97;1.27;;;6.60;90.00;;;;;;5054614;28;20388;-65
2023/12/22 05:26:20;;;;;;;6.10;1.08;;;6.60;89.90;;;;;;5054078;28;20045;-65
2023/12/22 05:28:46;;;;;;;4.25;1.42;;;6.60;89.70;;;;;;5054236;28;20025;-65
2023/12/22 05:31:12;;;;;;;3.40;1.17;;;6.60;89.40;;;;;;5053258;28;20036;-65
2023/12/22 05:33:38;;;;;;;4.05;1.23;;;6.60;89.20;;;;;;5054412;28;20391;-65
2023/12/22 05:36:04;;;;;;;3.22;0.85;;;6.60;88.90;;;;;;5054379;28;20029;-65
2023/12/22 05:38:30;;;;;;;6.55;1.13;;;6.60;88.70;;;;;;5053859;28;20033;-64
2023/12/22 05:40:56;;;;;;;5.10;1.00;;;6.60;88.60;;;;;;5054132;28;20021;-64
2023/12/22 05:43:21;;;;;;;3.28;1.10;;;6.60;88.60;;;;;;5053857;28;20116;-64
2023/12/22 05:45:47;;;;;;;4.93;0.90;;;6.60;88.30;;;;;;5053869;28;20025;-65
2023/12/22 05:48:13;;;;;;;9.70;1.20;;;6.60;88.50;;;;;;5068883;28;20056;-65
2023/12/22 05:50:38;;;;;;;5.35;1.08;;;6.60;88.20;;;;;;5073804;28;20032;-64
2023/12/22 05:53:04;;;;;;;6.10;1.13;;;6.60;87.70;;;;;;5074005;28;20035;-65
2023/12/22 05:55:29;;;;;;;6.30;1.27;;;6.60;87.70;;;;;;5073543;28;20025;-65
2023/12/22 05:57:55;;;;;;;6.97;1.35;;;6.60;87.40;;;;;;5074062;28;20025;-65
2023/12/22 06:00:21;;;;;;;5.72;1.50;;;6.50;87.60;;;;;;5073680;28;20102;-65
2023/12/22 06:02:47;;;;;;;6.50;1.13;;;6.50;87.50;;;;;;5073825;28;20028;-64
2023/12/22 06:05:13;;;;;;;6.32;1.40;;;6.50;87.70;;;;;;5073271;28;20039;-71
2023/12/22 06:07:39;;;;;;;4.18;1.20;;;6.50;88.10;;;;;;5073731;28;20021;-66
2023/12/22 06:10:05;;;;;;;6.45;1.30;;;6.40;88.20;;;;;;5050055;28;20038;-65
2023/12/22 06:12:31;;;;;;;7.65;1.25;;;6.40;88.60;;;;;;5043556;28;20029;-64
2023/12/22 06:14:57;;;;;;;6.55;1.33;;;6.40;89.10;;;;;;5053500;28;20021;-64
2023/12/22 06:17:22;;;;;;;4.63;1.00;;;6.40;89.50;;;;;;5049011;28;20037;-65
2023/12/22 06:19:48;;;;;;;3.60;0.98;;;6.40;90.00;;;;;;5047735;28;20022;-65
2023/12/22 06:22:13;;;;;;;3.00;1.00;;;6.30;90.40;;;;;;5038202;28;20061;-64
2023/12/22 06:24:39;;;;;;;4.10;0.93;;;6.30;90.70;;;;;;5033499;28;20471;-64
2023/12/22 06:27:06;;;;;;;5.60;1.17;;;6.20;91.10;;;;;;5042799;28;20029;-65
2023/12/22 06:29:32;;;;;;;4.78;1.20;;;6.20;91.50;;;;;;5049941;28;20029;-65
2023/12/22 06:31:57;;;;;;;2.13;0.70;;;6.10;91.80;;;;;;5053015;28;20029;-65
2023/12/22 06:34:23;;;;;;;6.88;1.15;;;6.00;92.20;;;;;;5052418;28;20525;-64
2023/12/22 06:36:50;;;;;;;6.13;1.05;;;6.00;92.40;;;;;;5053153;28;20017;-65
2023/12/22 06:39:15;;;;;;;4.43;1.15;;;5.90;92.70;;;;;;5052894;28;20025;-68
2023/12/22 06:41:41;;;;;;;3.92;1.27;;;5.90;93.00;;;;;;5051898;28;20531;-64
2023/12/22 06:44:07;;;;;;;4.93;1.02;;;5.80;93.10;;;;;;5041964;28;20033;-64
2023/12/22 06:46:33;;;;;;;4.60;1.50;;;5.80;93.40;;;;;;5036632;28;20108;-65
2023/12/22 06:48:59;;;;;;;6.13;1.45;;;5.80;93.70;;;;;;5051387;28;20025;-64
2023/12/22 06:51:33;;;;;;;3.63;1.00;;;5.70;94.10;;;;;;5038897;28;20040;-64
2023/12/22 06:54:00;;;;;;;2.50;1.08;;;5.70;94.50;;;;;;5033208;28;20044;-64
2023/12/22 06:56:27;;;;;;;2.58;1.02;;;5.70;94.80;;;;;;5046386;28;20031;-65
2023/12/22 06:58:54;;;;;;;3.17;1.10;;;5.70;95.10;;;;;;5052678;28;20424;-65
2023/12/22 07:01:21;;;;;;;2.92;0.98;;;5.70;95.30;;;;;;5052415;28;20021;-66
2023/12/22 07:03:50;;;;;;;3.88;1.10;;;5.70;95.50;;;;;;5051774;28;20425;-64
2023/12/22 07:06:23;;;;;;;3.13;1.02;;;5.70;95.50;;;;;;5047222;28;20105;-65
2023/12/22 07:09:16;;;;;;;3.28;1.00;;;5.70;95.60;;;;;;5032659;28;20505;-65
2023/12/22 07:11:58;;;;;;;1.58;0.90;;;5.70;95.50;;;;;;5032233;28;20033;-65
2023/12/22 07:14:24;;;;;;;2.95;1.00;;;5.70;95.50;;;;;;5032478;28;20328;-66
2023/12/22 07:16:50;;;;;;;1.80;1.08;;;5.70;95.40;;;;;;5033474;28;20041;-65
2023/12/22 07:19:15;;;;;;;2.85;0.95;;;5.70;95.50;;;;;;5043608;28;20026;-64
2023/12/22 07:21:41;;;;;;;3.58;1.00;;;5.70;95.50;;;;;;5035041;28;20433;-65
2023/12/22 07:24:07;;;;;;;6.72;1.23;;;5.70;95.40;;;;;;5043771;28;20191;-65
2023/12/22 07:26:33;;;;;;;1.45;0.80;;;5.70;95.20;;;;;;5044148;28;20116;-67
2023/12/22 07:28:59;;;;;;;2.58;1.00;;;5.80;95.00;;;;;;5044543;28;20033;-66
2023/12/22 07:31:25;;;;;;;4.40;1.67;;;5.80;94.80;;;;;;5051082;28;20033;-64
2023/12/22 07:33:51;;;;;;;5.25;1.17;;;5.80;94.50;;;;;;5051606;28;20112;-66
2023/12/22 07:36:18;;;;;;;4.00;1.10;;;5.80;94.30;;;;;;5051734;28;20489;-65
2023/12/22 07:38:44;;;;;;;2.53;0.77;;;5.80;94.30;;;;;;5051647;28;20027;-64
2023/12/22 07:41:09;;;;;;;1.95;0.80;;;5.80;94.20;;;;;;5051667;28;20119;-64
2023/12/22 07:43:35;;;;;;;4.13;1.10;;;5.80;94.20;;;;;;5049127;28;20033;-64
2023/12/22 07:46:00;;;;;;;2.53;1.00;;;5.90;94.20;;;;;;5047125;28;20025;-65
2023/12/22 07:48:26;;;;;;;2.28;0.98;;;5.90;94.00;;;;;;5052235;28;20564;-64
2023/12/22 07:50:52;;;;;;;4.05;1.25;;;5.90;94.00;;;;;;5069341;28;20139;-64
2023/12/22 07:53:17;;;;;;;2.70;0.80;;;5.90;94.10;;;;;;5071359;28;20044;-65
2023/12/22 07:55:44;;;;;;;3.47;0.98;;;5.90;94.00;;;;;;5048328;28;20136;-64
2023/12/22 07:58:09;;;;;;;3.47;1.20;;;6.00;93.90;;;;;;5050117;28;20028;-66
2023/12/22 08:00:36;;;;;;;6.13;0.70;;;6.00;93.80;;;;;;5049898;28;20393;-66
2023/12/22 08:03:02;;;;;;;1.85;0.70;;;6.00;93.70;;;;;;5050523;28;20025;-64
2023/12/22 08:05:29;;;;;;;2.25;0.80;;;6.00;93.20;;;;;;5051083;28;20036;-65
2023/12/22 08:07:55;;;;;;;1.73;0.80;;;6.00;93.40;;;;;;5051633;28;20120;-64
2023/12/22 08:10:21;;;;;;;2.33;0.75;;;6.00;93.30;;;;;;5051917;28;20488;-64
2023/12/22 08:12:46;;;;;;;3.85;1.13;;;6.10;93.30;;;;;;5050868;28;20037;-64
2023/12/22 08:15:12;;;;;;;2.95;0.73;;;6.10;93.00;;;;;;5051452;28;20033;-66
2023/12/22 08:17:48;;;;;;;2.97;0.80;;;6.10;92.90;;;;;;5051312;28;20350;-66
2023/12/22 08:20:19;;;;;;;1.13;0.65;;;6.10;93.00;;;;;;5050441;28;20466;-68
2023/12/22 08:22:49;;;;;;;1.27;0.82;;;6.10;92.90;;;;;;5050119;28;20025;-67
2023/12/22 08:25:15;;;;;;;3.53;0.82;;;6.10;92.50;;;;;;5051978;28;20462;-68
2023/12/22 08:27:41;;;;;;;1.23;0.80;;;6.20;92.50;;;;;;5050976;28;20064;-68
2023/12/22 08:30:08;;;;;;;5.85;0.75;;;6.20;92.40;;;;;;5051558;28;20119;-67
2023/12/22 08:32:33;;;;;;;2.15;0.90;;;6.20;92.30;;;;;;5050486;28;20044;-67
2023/12/22 08:34:59;;;;;;;1.40;0.80;;;6.20;92.30;;;;;;5051524;28;20061;-68
2023/12/22 08:37:25;;;;;;;5.55;1.05;;;6.20;92.20;;;;;;5050385;28;20029;-69
2023/12/22 08:39:50;;;;;;;2.35;0.82;;;6.20;92.10;;;;;;5051552;28;20032;-67
2023/12/22 08:42:17;;;;;;;2.58;0.82;;;6.20;92.00;;;;;;5047709;28;20052;-68
2023/12/22 08:44:43;;;;;;;2.40;0.70;;;6.20;92.00;;;;;;5044496;28;20042;-70
2023/12/22 08:47:08;;;;;;;1.23;0.77;;;6.20;92.00;;;;;;5048700;28;20031;-70
2023/12/22 08:49:34;;;;;;;2.15;1.02;;;6.20;92.00;;;;;;5030866;28;20026;-70
2023/12/22 08:51:59;;;;;;;1.85;0.70;;;6.20;92.00;;;;;;5031617;28;20359;-70
2023/12/22 08:54:26;;;;;;;2.88;1.00;;;6.20;91.90;;;;;;5031107;28;20022;-70
2023/12/22 08:56:52;;;;;;;1.85;0.73;;;6.20;91.80;;;;;;5031607;28;20030;-70
2023/12/22 08:59:18;;;;;;;2.70;0.77;;;6.30;91.80;;;;;;5031056;28;20045;-70
2023/12/22 09:01:43;;;;;;;4.25;0.82;;;6.30;91.40;;;;;;5030960;28;20489;-70
2023/12/22 09:04:11;;;;;;;2.17;0.80;;;6.30;91.40;;;;;;5031667;28;20034;-70
2023/12/22 09:06:37;;;;;;;2.03;0.82;;;6.30;91.40;;;;;;5033699;28;20091;-71
2023/12/22 09:09:03;;;;;;;1.88;1.05;;;6.30;91.30;;;;;;5034997;28;20083;-70
2023/12/22 09:11:29;;;;;;;1.67;0.90;;;6.40;91.00;;;;;;5034535;28;20389;-70
2023/12/22 09:13:55;;;;;;;3.47;1.13;;;6.40;90.90;;;;;;5034603;28;20336;-70
2023/12/22 09:16:22;;;;;;;2.47;0.90;;;6.40;90.80;;;;;;5034909;28;20033;-70
2023/12/22 09:18:48;;;;;;;1.55;0.90;;;6.40;91.00;;;;;;5034500;28;20105;-70
2023/12/22 09:21:14;;;;;;;1.60;0.93;;;6.40;90.90;;;;;;5034844;28;20032;-70
2023/12/22 09:23:39;;;;;;;2.70;1.00;;;6.50;90.90;;;;;;5034103;28;20397;-71
2023/12/22 09:26:05;;;;;;;3.53;0.85;;;6.50;90.60;;;;;;5034382;28;20022;-70
2023/12/22 09:28:30;;;;;;;3.38;0.98;;;6.60;90.30;;;;;;5034222;28;20057;-71
2023/12/22 09:30:56;;;;;;;3.47;0.75;;;6.60;90.20;;;;;;5034682;28;20036;-70
2023/12/22 09:33:24;;;;;;;4.93;0.80;;;6.60;90.10;;;;;;5034470;28;20044;-70
2023/12/22 09:35:50;;;;;;;5.57;1.00;;;6.60;90.10;;;;;;5034159;28;20033;-70
2023/12/22 09:38:16;;;;;;;1.67;0.90;;;6.70;89.70;;;;;;5034321;28;20033;-70
2023/12/22 09:40:42;;;;;;;5.22;1.33;;;6.80;88.60;;;;;;5042111;28;20032;-70
2023/12/22 09:43:08;;;;;;;1.77;0.80;;;6.80;88.60;;;;;;5074224;28;20024;-70
2023/12/22 09:45:34;;;;;;;2.95;0.88;;;6.90;88.70;;;;;;5073592;28;20491;-70
2023/12/22 09:48:01;;;;;;;2.30;0.80;;;6.90;87.80;;;;;;5074289;28;20020;-70
2023/12/22 09:50:30;;;;;;;4.32;0.82;;;6.90;86.80;;;;;;5074120;28;20033;-70
2023/12/22 09:52:57;;;;;;;6.00;1.20;;;6.90;86.40;;;;;;5074132;28;20118;-70
2023/12/22 09:55:25;;;;;;;1.95;0.77;;;7.00;86.40;;;;;;5074456;28;20479;-69
2023/12/22 09:57:52;;;;;;;0.98;0.60;;;7.00;86.40;;;;;;5073675;28;20036;-70
2023/12/22 10:00:18;;;;;;;1.30;0.55;;;7.00;86.60;;;;;;5073701;28;20087;-70
2023/12/22 10:02:47;;;;;;;3.20;0.90;;;7.00;86.70;;;;;;5073166;28;20474;-70
2023/12/22 10:05:13;;;;;;;4.97;0.80;;;7.00;86.70;;;;;;5073427;28;20028;-70
2023/12/22 10:07:41;;;;;;;1.85;0.70;;;7.00;86.70;;;;;;5073382;28;20537;-70
2023/12/22 10:10:08;;;;;;;2.35;1.08;;;7.00;87.10;;;;;;5073518;28;20074;-69
2023/12/22 10:12:34;;;;;;;5.30;0.80;;;7.00;86.80;;;;;;5073301;28;20036;-70
2023/12/22 10:15:00;;;;;;;1.83;0.80;;;6.90;86.90;;;;;;5059974;28;20025;-70
2023/12/22 10:17:27;;;;;;;1.60;1.00;;;6.90;87.00;;;;;;5053519;28;20056;-70
2023/12/22 10:19:52;;;;;;;6.20;0.93;;;6.90;87.00;;;;;;5053193;28;20044;-69
2023/12/22 10:22:18;;;;;;;1.35;0.73;;;6.90;86.60;;;;;;5053632;28;20017;-70
2023/12/22 10:24:47;;;;;;;1.45;0.60;;;6.90;86.10;;;;;;5052739;28;20453;-69
2023/12/22 10:27:16;;;;;;;1.05;0.70;;;6.90;86.00;;;;;;5053547;28;20033;-69
2023/12/22 10:29:42;;;;;;;2.15;0.90;;;6.90;85.70;;;;;;5052868;28;20443;-71
2023/12/22 10:32:11;;;;;;;1.67;0.82;;;6.90;85.90;;;;;;5052767;28;20051;-70
2023/12/22 10:34:37;;;;;;;3.47;1.08;;;6.90;85.70;;;;;;5039583;28;20029;-69
2023/12/22 10:37:02;;;;;;;2.45;0.70;;;6.90;85.40;;;;;;5043441;28;20029;-69
2023/12/22 10:39:29;;;;;;;1.42;0.80;;;7.00;84.60;;;;;;5033037;28;20105;-70
2023/12/22 10:41:56;;;;;;;1.00;0.57;;;7.20;84.50;;;;;;5032865;28;20021;-69
2023/12/22 10:44:28;;;;;;;1.40;0.77;;;7.30;83.60;;;;;;5032956;28;20068;-70
2023/12/22 10:46:54;;;;;;;1.23;0.60;;;7.50;83.30;;;;;;5032609;28;20514;-71
2023/12/22 10:49:20;;;;;;;1.67;0.80;;;7.60;82.40;;;;;;5032663;28;20382;-69
2023/12/22 10:51:46;;;;;;;1.63;0.70;;;7.70;81.60;;;;;;5047600;28;20050;-70
2023/12/22 10:54:12;;;;;;;3.28;0.88;;;7.80;81.00;;;;;;5032454;28;20030;-69
2023/12/22 10:56:39;;;;;;;2.28;0.65;;;7.80;80.60;;;;;;5032405;28;20034;-71
2023/12/22 10:59:06;;;;;;;4.25;0.80;;;7.90;79.90;;;;;;5032734;28;20049;-70
2023/12/22 11:01:38;;;;;;;2.75;0.80;;;8.00;79.80;;;;;;5032842;28;20128;-70
2023/12/22 11:04:06;;;;;;;1.40;0.77;;;8.10;79.40;;;;;;5033025;28;20462;-70
2023/12/22 11:06:35;;;;;;;1.83;0.90;;;8.20;79.30;;;;;;5032513;28;20033;-70
2023/12/22 11:09:06;;;;;;;1.60;0.68;;;8.20;78.90;;;;;;5032324;28;20413;-70
2023/12/22 11:11:36;;;;;;;1.85;0.82;;;8.20;78.60;;;;;;5032676;28;20033;-70
2023/12/22 11:14:03;;;;;;;2.97;0.93;;;8.20;78.80;;;;;;5032871;28;20037;-70
2023/12/22 11:16:30;;;;;;;1.52;0.70;;;8.30;79.40;;;;;;5032439;28;20480;-70
2023/12/22 11:18:56;;;;;;;1.85;0.75;;;8.30;79.00;;;;;;5031923;28;20501;-70
2023/12/22 11:21:23;;;;;;;3.20;0.80;;;8.30;78.50;;;;;;5032537;28;20029;-70
2023/12/22 11:23:53;;;;;;;1.30;0.65;;;8.30;78.90;;;;;;5031938;28;20518;-70
2023/12/22 11:26:20;;;;;;;1.23;0.80;;;8.30;79.60;;;;;;5031385;28;20398;-70
2023/12/22 11:28:47;;;;;;;2.80;0.70;;;8.30;79.80;;;;;;5031406;28;20025;-71
2023/12/22 11:31:14;;;;;;;2.00;0.70;;;8.20;80.10;;;;;;5032241;28;20079;-71
2023/12/22 11:33:50;;;;;;;2.25;0.77;;;8.10;80.60;;;;;;5031843;28;20042;-71
2023/12/22 11:36:17;;;;;;;3.83;1.08;;;8.00;81.30;;;;;;5032076;28;20316;-70
2023/12/22 11:38:45;;;;;;;2.72;0.77;;;7.90;81.70;;;;;;5031603;28;20036;-71
2023/12/22 11:41:22;;;;;;;3.20;1.00;;;7.70;81.90;;;;;;5049198;28;20170;-70
2023/12/22 11:43:49;;;;;;;2.67;0.60;;;7.60;81.80;;;;;;5071390;28;20028;-70
2023/12/22 11:46:17;;;;;;;1.13;0.55;;;7.50;80.40;;;;;;5072434;28;20040;-70
2023/12/22 11:48:51;;;;;;;1.33;0.68;;;7.30;80.80;;;;;;5071276;28;20565;-70
2023/12/22 11:51:18;;;;;;;1.55;0.63;;;7.20;81.60;;;;;;5072052;28;20071;-69
2023/12/22 11:53:44;;;;;;;0.50;0.40;;;7.20;81.50;;;;;;5071679;28;20028;-71
2023/12/22 11:56:12;;;;;;;2.58;0.60;;;7.20;81.00;;;;;;5071962;28;20063;-70
2023/12/22 11:58:52;;;;;;;1.00;0.60;;;7.30;81.00;;;;;;5071643;28;20054;-70
2023/12/22 12:01:19;;;;;;;2.42;0.50;;;7.30;82.00;;;;;;5071982;28;20028;-71
2023/12/22 12:03:52;;;;;;;1.85;0.68;;;7.40;82.30;;;;;;5071328;28;20089;-71
2023/12/22 12:06:29;;;;;;;1.80;0.75;;;7.50;82.70;;;;;;5071885;28;20370;-71
2023/12/22 12:08:56;;;;;;;1.02;0.65;;;7.60;82.30;;;;;;5071218;28;20025;-71
2023/12/22 12:11:23;;;;;;;3.25;0.98;;;7.70;82.40;;;;;;5071730;28;20380;-71
2023/12/22 12:13:50;;;;;;;2.03;0.75;;;7.90;82.40;;;;;;5071338;28;20412;-71
2023/12/22 12:16:23;;;;;;;1.50;0.70;;;8.00;82.30;;;;;;5071565;28;20020;-71
2023/12/22 12:18:49;;;;;;;1.15;0.50;;;8.10;82.30;;;;;;5071408;28;20079;-71
2023/12/22 12:21:16;;;;;;;1.65;0.55;;;8.10;82.50;;;;;;5062293;28;20029;-70
2023/12/22 12:23:42;;;;;;;3.60;0.80;;;8.10;81.80;;;;;;5051247;28;20470;-71
2023/12/22 12:26:08;;;;;;;2.42;0.70;;;8.00;81.70;;;;;;5051555;28;20095;-70
2023/12/22 12:28:35;;;;;;;1.50;0.60;;;8.00;81.60;;;;;;5050273;28;20066;-70
2023/12/22 12:31:08;;;;;;;0.63;0.60;;;7.90;82.00;;;;;;5050966;28;20100;-70
2023/12/22 12:33:35;;;;;;;1.00;0.60;;;7.80;82.60;;;;;;5051365;28;20025;-70
2023/12/22 12:36:05;;;;;;;2.20;0.60;;;7.70;82.10;;;;;;5051069;28;20029;-71
2023/12/22 12:38:48;;;;;;;1.45;0.90;;;7.60;82.60;;;;;;5051609;28;20025;-71
2023/12/22 12:41:15;;;;;;;1.90;1.10;;;7.50;82.00;;;;;;5055453;28;20036;-71
2023/12/22 12:43:45;;;;;;;1.92;0.80;;;7.50;82.20;;;;;;5055415;28;20469;-71
2023/12/22 12:46:11;;;;;;;2.03;0.90;;;7.50;82.40;;;;;;5055420;28;20123;-71
2023/12/22 12:48:37;;;;;;;2.00;0.80;;;7.50;80.60;;;;;;5055137;28;20025;-70
2023/12/22 12:51:06;;;;;;;2.42;1.08;;;7.40;77.40;;;;;;5054675;28;20600;-71
2023/12/22 12:53:33;;;;;;;2.08;1.27;;;7.40;78.80;;;;;;5055237;28;20040;-70
2023/12/22 12:56:00;;;;;;;2.80;1.13;;;7.40;80.70;;;;;;5054648;28;20029;-70